Bronte, Texas
Current Conditions -  °F | °C
As of 3:51 PM on Thursday 23 Oct 2014 (Local Time) from KSJT Reporting Station
Broken Clouds Broken Clouds  
Wind Chill: 24°   Ceiling: 3000
Heat Index: 24°   Visibility: 10mi
Dew Point: 16°   Wind: 12mph
Humidity: 60%   Direction: 200°SSW
Pressure: 30.09"   Gusts: 18mph
Location:  31.89°N, 100.29°W
Report Text: KSJT 232051Z 20010G16KT 10SM BKN030 24/16 A3009 RMK AO2 SLP175 T02440161 56020
Loading
Personal Weather Stations






























Interactive Weather Map
Tropical Storm Tracking
New forecast layout! Learn more

10-Day Weather Forecast

Advertisements
Track Severe Weather on mobile